Time;durP1;ratioP1;P1;durP2;ratioP2;P2;SDS_P1;SDS_P2;PMS_P1;PMS_P2;Temp;Humidity;BMP_temperature;BMP_pressure;BME280_temperature;BME280_humidity;BME280_pressure;Samples;Min_cycle;Max_cycle;Signal;HPM_P1;HPM_P2
2024/03/24 00:07:11;;;;;;;10.77;8.00;;;5.30;94.30;;;;;;5993681;23;20171;-86
2024/03/24 00:52:54;;;;;;;12.03;9.67;;;5.00;93.70;;;;;;5803404;24;20179;-84
2024/03/24 01:13:05;;;;;;;9.67;8.07;;;4.70;93.80;;;;;;5842475;24;20185;-83
2024/03/24 01:38:51;;;;;;;9.63;6.17;;;4.50;96.30;;;;;;6042411;23;20208;-82
2024/03/24 01:43:06;;;;;;;9.57;6.60;;;4.40;96.50;;;;;;6031839;23;20469;-83
2024/03/24 01:58:42;;;;;;;8.43;6.30;;;4.20;97.50;;;;;;6018285;23;20193;-84
2024/03/24 02:19:13;;;;;;;6.50;5.20;;;3.80;99.50;;;;;;6011556;23;20196;-82
2024/03/24 02:44:30;;;;;;;7.77;6.43;;;3.60;99.90;;;;;;5835947;24;20295;-85
2024/03/24 03:30:17;;;;;;;10.60;7.87;;;3.80;99.90;;;;;;6176324;22;20164;-83
2024/03/24 04:00:30;;;;;;;12.10;7.37;;;3.60;99.90;;;;;;6008761;23;20994;-83
2024/03/24 04:25:26;;;;;;;9.20;6.80;;;3.40;99.90;;;;;;5711741;24;20213;-82
2024/03/24 04:51:11;;;;;;;9.60;7.60;;;3.80;99.90;;;;;;5847503;23;21070;-82
2024/03/24 05:11:16;;;;;;;12.63;7.43;;;3.90;99.90;;;;;;5717658;24;20495;-84
2024/03/24 05:36:53;;;;;;;8.73;7.20;;;4.10;99.40;;;;;;5659074;24;20212;-84
2024/03/24 06:02:23;;;;;;;13.70;7.93;;;4.40;96.40;;;;;;6006267;23;20181;-87
2024/03/24 06:32:53;;;;;;;20.77;15.40;;;5.60;90.80;;;;;;5917146;23;20650;-86
2024/03/24 06:53:14;;;;;;;18.67;14.97;;;5.30;91.90;;;;;;5880586;23;20620;-84
2024/03/24 07:59:04;;;;;;;19.97;14.33;;;5.30;91.00;;;;;;6125310;23;20694;-85
2024/03/24 08:19:30;;;;;;;23.20;15.93;;;5.10;90.90;;;;;;6052012;23;20179;-86
2024/03/24 08:39:38;;;;;;;22.50;15.93;;;5.20;90.90;;;;;;5808968;24;20381;-85
2024/03/24 09:04:44;;;;;;;18.30;13.90;;;5.50;89.70;;;;;;5912907;23;20605;-84
2024/03/24 10:05:50;;;;;;;13.43;9.77;;;7.00;85.10;;;;;;5867781;24;20310;-84
2024/03/24 10:35:46;;;;;;;8.13;7.27;;;7.30;83.00;;;;;;5804429;24;20619;-85
2024/03/24 11:27:10;;;;;;;6.20;5.60;;;8.10;80.30;;;;;;5688928;24;20698;-85
2024/03/24 11:57:28;;;;;;;6.77;6.07;;;9.20;78.30;;;;;;5850483;23;20245;-86
2024/03/24 12:22:56;;;;;;;7.37;5.07;;;10.40;75.80;;;;;;5856734;24;20195;-85
2024/03/24 13:03:26;;;;;;;6.83;4.83;;;9.30;72.50;;;;;;5990341;23;20218;-85
2024/03/24 13:23:50;;;;;;;5.70;4.40;;;9.70;69.60;;;;;;5940187;23;20182;-85
2024/03/24 14:09:25;;;;;;;7.07;4.10;;;10.00;67.80;;;;;;5806357;24;20230;-85
2024/03/24 14:34:51;;;;;;;4.43;3.43;;;9.20;69.80;;;;;;5836804;24;20938;-86
2024/03/24 15:00:00;;;;;;;5.43;4.60;;;8.90;69.80;;;;;;5813916;24;20178;-85
2024/03/24 15:25:37;;;;;;;5.90;4.70;;;8.50;71.40;;;;;;6102557;23;20648;-86
2024/03/24 15:50:44;;;;;;;5.07;4.27;;;8.00;72.20;;;;;;5858340;24;20207;-84
2024/03/24 16:16:16;;;;;;;8.77;7.87;;;6.60;81.80;;;;;;5912656;24;20187;-85
2024/03/24 16:36:23;;;;;;;8.90;8.17;;;6.10;86.80;;;;;;5829318;24;20696;-87
2024/03/24 17:01:59;;;;;;;7.50;6.90;;;4.70;91.80;;;;;;5859770;24;20498;-82
2024/03/24 17:32:12;;;;;;;10.00;8.73;;;3.30;99.90;;;;;;5866781;24;20855;-84
2024/03/24 17:57:05;;;;;;;13.60;8.20;;;3.00;99.90;;;;;;5838751;24;20323;-86
2024/03/24 18:12:43;;;;;;;12.43;9.23;;;2.70;99.90;;;;;;5817043;24;20170;-85
2024/03/24 18:32:46;;;;;;;12.43;10.10;;;2.50;99.90;;;;;;5787883;24;20208;-86
2024/03/24 19:03:30;;;;;;;17.40;11.67;;;2.20;99.90;;;;;;5798040;24;20193;-86
2024/03/24 19:33:49;;;;;;;16.37;12.63;;;2.00;99.90;;;;;;5847676;24;20271;-85
2024/03/24 19:58:47;;;;;;;18.10;13.63;;;2.10;99.90;;;;;;5917884;24;20604;-87
2024/03/24 20:19:43;;;;;;;25.03;16.33;;;1.90;99.90;;;;;;5967329;23;20210;-85
2024/03/24 20:45:04;;;;;;;32.87;22.97;;;2.40;99.90;;;;;;6108261;23;20254;-87
2024/03/24 21:05:10;;;;;;;29.60;21.97;;;2.70;99.90;;;;;;5877385;24;20186;-87
2024/03/24 21:30:47;;;;;;;32.40;21.57;;;3.00;99.90;;;;;;5802147;24;20268;-85
2024/03/24 22:01:03;;;;;;;29.10;19.70;;;2.80;99.90;;;;;;5900117;24;20215;-86
2024/03/24 22:31:25;;;;;;;24.90;16.37;;;3.00;99.90;;;;;;5956710;23;20196;-87
2024/03/24 22:56:49;;;;;;;23.90;17.00;;;3.40;99.90;;;;;;5831146;24;20238;-85
2024/03/24 23:37:33;;;;;;;16.97;11.83;;;3.90;99.90;;;;;;6015689;23;20184;-85
